createdAt,value
2023-04-21T00:01:27.739Z,98358.00
2023-04-21T00:04:00.366Z,98358.00
2023-04-21T00:06:33.120Z,98363.00
2023-04-21T00:09:05.472Z,98358.00
2023-04-21T00:11:36.609Z,98372.00
2023-04-21T00:14:07.565Z,98366.00
2023-04-21T00:16:38.641Z,98370.00
2023-04-21T00:19:09.610Z,98367.00
2023-04-21T00:21:40.536Z,98358.00
2023-04-21T00:24:11.714Z,98355.00
2023-04-21T00:26:42.616Z,98357.00
2023-04-21T00:29:13.457Z,98359.00
2023-04-21T00:31:44.388Z,98354.00
2023-04-21T00:34:15.371Z,98355.00
2023-04-21T00:36:46.306Z,98359.00
2023-04-21T00:39:17.285Z,98359.00
2023-04-21T00:41:48.310Z,98355.00
2023-04-21T00:44:19.184Z,98349.00
2023-04-21T00:46:50.202Z,98345.00
2023-04-21T00:49:22.766Z,98342.00
2023-04-21T00:51:55.051Z,98334.00
2023-04-21T00:54:27.412Z,98344.00
2023-04-21T00:56:59.439Z,98333.00
2023-04-21T00:59:31.476Z,98330.00
2023-04-21T01:02:02.604Z,98328.00
2023-04-21T01:04:38.888Z,98336.00
2023-04-21T01:07:10.232Z,98334.00
2023-04-21T01:09:41.243Z,98338.00
2023-04-21T01:12:13.318Z,98328.00
2023-04-21T01:14:44.305Z,98336.00
2023-04-21T01:17:18.915Z,98326.00
2023-04-21T01:19:51.835Z,98311.00
2023-04-21T01:22:22.744Z,98311.00
2023-04-21T01:24:53.756Z,98320.00
2023-04-21T01:27:26.969Z,98312.00
2023-04-21T01:29:58.234Z,98322.00
2023-04-21T01:32:31.486Z,98322.00
2023-04-21T01:35:02.703Z,98324.00
2023-04-21T01:37:35.101Z,98319.00
2023-04-21T01:40:09.330Z,98326.00
2023-04-21T01:42:43.269Z,98329.00
2023-04-21T01:45:14.547Z,98326.00
2023-04-21T01:47:45.610Z,98330.00
2023-04-21T01:50:16.653Z,98327.00
2023-04-21T01:52:47.630Z,98321.00
2023-04-21T01:55:18.716Z,98324.00
2023-04-21T01:57:49.626Z,98338.00
2023-04-21T02:00:20.533Z,98336.00
2023-04-21T02:02:51.559Z,98337.00
2023-04-21T02:05:22.604Z,98336.00
2023-04-21T02:07:53.523Z,98335.00
2023-04-21T02:10:24.526Z,98335.00
2023-04-21T02:12:55.438Z,98331.00
2023-04-21T02:15:26.484Z,98332.00
2023-04-21T02:17:57.395Z,98329.00
2023-04-21T02:20:28.353Z,98326.00
2023-04-21T02:22:59.250Z,98325.00
2023-04-21T02:25:30.792Z,98332.00
2023-04-21T02:28:01.738Z,98333.00
2023-04-21T02:30:33.985Z,98331.00
2023-04-21T02:33:04.939Z,98329.00
2023-04-21T02:35:35.837Z,98329.00
2023-04-21T02:38:09.023Z,98321.00
2023-04-21T02:40:41.019Z,98335.00
2023-04-21T02:43:14.233Z,98336.00
2023-04-21T02:45:46.103Z,98338.00
2023-04-21T02:48:20.894Z,98334.00
2023-04-21T02:50:53.282Z,98331.00
2023-04-21T02:53:24.309Z,98334.00
2023-04-21T02:55:55.742Z,98361.00
2023-04-21T02:58:26.667Z,98348.00
2023-04-21T03:00:57.668Z,98343.00
2023-04-21T03:03:28.724Z,98340.00
2023-04-21T03:06:02.051Z,98329.00
2023-04-21T03:08:33.182Z,98331.00
2023-04-21T03:11:04.155Z,98331.00
2023-04-21T03:13:35.225Z,98329.00
2023-04-21T03:16:06.781Z,98332.00
2023-04-21T03:18:37.868Z,98320.00
2023-04-21T03:21:08.837Z,98310.00
2023-04-21T03:23:39.738Z,98312.00
2023-04-21T03:26:11.830Z,98302.00
2023-04-21T03:28:42.733Z,98299.00
2023-04-21T03:31:13.639Z,98304.00
2023-04-21T03:33:44.501Z,98313.00
2023-04-21T03:36:15.425Z,98321.00
2023-04-21T03:38:46.292Z,98315.00
2023-04-21T03:41:17.318Z,98329.00
2023-04-21T03:43:54.041Z,98323.00
2023-04-21T03:46:25.620Z,98321.00
2023-04-21T03:48:56.631Z,98316.00
2023-04-21T03:51:27.521Z,98314.00
2023-04-21T03:53:59.323Z,98321.00
2023-04-21T03:56:30.428Z,98324.00
2023-04-21T03:59:01.391Z,98327.00
2023-04-21T04:01:33.864Z,98324.00
2023-04-21T04:04:05.328Z,98334.00
2023-04-21T04:06:36.401Z,98321.00
2023-04-21T04:09:09.076Z,98330.00
2023-04-21T04:11:40.053Z,98339.00
2023-04-21T04:14:10.910Z,98325.00
2023-04-21T04:16:42.035Z,98330.00
2023-04-21T04:19:13.606Z,98319.00
2023-04-21T04:21:44.789Z,98324.00
2023-04-21T04:24:15.938Z,98324.00
2023-04-21T04:26:47.036Z,98335.00
2023-04-21T04:29:18.725Z,98335.00
2023-04-21T04:31:52.765Z,98339.00
2023-04-21T04:34:23.689Z,98333.00
2023-04-21T04:36:54.611Z,98333.00
2023-04-21T04:39:25.848Z,98330.00
2023-04-21T04:41:56.786Z,98329.00
2023-04-21T04:44:28.101Z,98338.00
2023-04-21T04:46:59.135Z,98335.00
2023-04-21T04:49:30.272Z,98335.00
2023-04-21T04:52:02.002Z,98344.00
2023-04-21T04:54:32.861Z,98340.00
2023-04-21T04:57:03.904Z,98335.00
2023-04-21T04:59:36.634Z,98335.00
2023-04-21T05:02:08.330Z,98345.00
2023-04-21T05:04:39.829Z,98337.00
2023-04-21T05:07:10.815Z,98352.00
2023-04-21T05:09:41.670Z,98354.00
2023-04-21T05:12:12.550Z,98359.00
2023-04-21T05:14:43.448Z,98365.00
2023-04-21T05:17:14.329Z,98359.00
2023-04-21T05:19:45.343Z,98368.00
2023-04-21T05:22:16.215Z,98371.00
2023-04-21T05:24:47.177Z,98366.00
2023-04-21T05:27:18.059Z,98367.00
2023-04-21T05:29:50.222Z,98371.00
2023-04-21T05:32:21.382Z,98372.00
2023-04-21T05:34:52.565Z,98381.00
2023-04-21T05:37:23.453Z,98379.00
2023-04-21T05:39:54.336Z,98390.00
2023-04-21T05:42:25.318Z,98379.00
2023-04-21T05:44:56.299Z,98388.00
2023-04-21T05:47:27.205Z,98383.00
2023-04-21T05:49:58.095Z,98370.00
2023-04-21T05:52:28.993Z,98373.00
2023-04-21T05:54:59.899Z,98374.00
2023-04-21T05:57:30.778Z,98371.00
2023-04-21T06:00:01.688Z,98359.00
2023-04-21T06:02:32.749Z,98361.00
2023-04-21T06:05:04.127Z,98358.00
2023-04-21T06:07:37.353Z,98353.00
2023-04-21T06:10:09.000Z,98344.00
2023-04-21T06:12:40.188Z,98344.00
2023-04-21T06:15:11.296Z,98345.00
2023-04-21T06:17:42.187Z,98335.00
2023-04-21T06:20:13.422Z,98335.00
2023-04-21T06:22:44.304Z,98329.00
2023-04-21T06:25:15.229Z,98325.00
2023-04-21T06:27:46.294Z,98328.00
2023-04-21T06:30:17.753Z,98341.00
2023-04-21T06:32:49.028Z,98349.00
2023-04-21T06:35:20.865Z,98361.00
2023-04-21T06:37:52.053Z,98352.00
2023-04-21T06:40:22.930Z,98343.00
2023-04-21T06:42:53.744Z,98344.00
2023-04-21T06:45:24.799Z,98335.00
2023-04-21T06:47:55.662Z,98340.00
2023-04-21T06:50:26.683Z,98341.00
2023-04-21T06:52:57.596Z,98351.00
2023-04-21T06:55:28.651Z,98342.00
2023-04-21T06:57:59.580Z,98348.00
2023-04-21T07:00:30.603Z,98335.00
2023-04-21T07:03:01.578Z,98333.00
2023-04-21T07:05:32.939Z,98335.00
2023-04-21T07:08:03.886Z,98339.00
2023-04-21T07:10:34.774Z,98346.00
2023-04-21T07:13:08.789Z,98338.00
2023-04-21T07:15:41.293Z,98330.00
2023-04-21T07:18:12.291Z,98329.00
2023-04-21T07:20:43.255Z,98327.00
2023-04-21T07:23:20.409Z,98321.00
2023-04-21T07:25:51.814Z,98310.00
2023-04-21T07:28:22.807Z,98307.00
2023-04-21T07:30:54.108Z,98332.00
2023-04-21T07:33:25.132Z,98312.00
2023-04-21T07:35:56.185Z,98307.00
2023-04-21T07:38:27.089Z,98301.00
2023-04-21T07:41:02.130Z,98301.00
2023-04-21T07:43:33.012Z,98301.00
2023-04-21T07:46:03.982Z,98303.00
2023-04-21T07:48:34.952Z,98290.00
2023-04-21T07:51:06.751Z,98306.00
2023-04-21T07:53:37.614Z,98301.00
2023-04-21T07:56:08.857Z,98319.00
2023-04-21T07:58:39.701Z,98292.00
2023-04-21T08:01:10.787Z,98296.00
2023-04-21T08:03:41.901Z,98295.00
2023-04-21T08:06:13.160Z,98299.00
2023-04-21T08:08:44.191Z,98294.00
2023-04-21T08:11:15.522Z,98297.00
2023-04-21T08:13:46.553Z,98291.00
2023-04-21T08:16:17.561Z,98298.00
2023-04-21T08:18:48.517Z,98294.00
2023-04-21T08:21:19.900Z,98302.00
2023-04-21T08:23:51.466Z,98290.00
2023-04-21T08:26:23.759Z,98293.00
2023-04-21T08:28:54.816Z,98285.00
2023-04-21T08:31:26.297Z,98280.00
2023-04-21T08:34:01.974Z,98282.00
2023-04-21T08:36:34.244Z,98283.00
2023-04-21T08:39:05.537Z,98274.00
2023-04-21T08:41:41.245Z,98285.00
2023-04-21T08:44:12.174Z,98282.00
2023-04-21T08:46:45.527Z,98295.00
2023-04-21T08:49:21.355Z,98285.00
2023-04-21T08:51:52.502Z,98283.00
2023-04-21T08:54:23.388Z,98280.00
2023-04-21T08:57:01.385Z,98285.00
2023-04-21T08:59:39.117Z,98270.00
2023-04-21T09:02:19.077Z,98266.00
2023-04-21T09:04:52.265Z,98280.00
2023-04-21T09:07:36.798Z,98275.00
2023-04-21T09:10:08.459Z,98271.00
2023-04-21T09:12:41.017Z,98262.00
2023-04-21T09:15:12.673Z,98269.00
2023-04-21T09:17:45.887Z,98260.00
2023-04-21T09:20:20.884Z,98264.00
2023-04-21T09:22:52.150Z,98258.00
2023-04-21T09:25:23.638Z,98252.00
2023-04-21T09:27:56.100Z,98249.00
2023-04-21T09:30:27.222Z,98246.00
2023-04-21T09:32:58.825Z,98244.00
2023-04-21T09:35:33.214Z,98242.00
2023-04-21T09:38:04.976Z,98243.00
2023-04-21T09:40:36.042Z,98235.00
2023-04-21T09:43:07.967Z,98233.00
2023-04-21T09:45:40.647Z,98244.00
2023-04-21T09:48:14.381Z,98244.00
2023-04-21T09:53:25.522Z,98247.00
2023-04-21T09:55:58.739Z,98244.00
2023-04-21T09:58:36.242Z,98241.00
2023-04-21T10:01:08.243Z,98239.00
2023-04-21T10:03:40.877Z,98231.00
2023-04-21T10:06:12.706Z,98225.00
2023-04-21T10:08:44.411Z,98219.00
2023-04-21T10:11:16.675Z,98214.00
2023-04-21T10:13:47.644Z,98210.00
2023-04-21T10:16:19.825Z,98214.00
2023-04-21T10:18:52.746Z,98207.00
2023-04-21T10:21:24.491Z,98204.00
2023-04-21T10:23:59.167Z,98203.00
2023-04-21T10:26:36.485Z,98209.00
2023-04-21T10:29:09.569Z,98184.00
2023-04-21T10:31:53.851Z,98195.00
2023-04-21T10:34:37.934Z,98197.00
2023-04-21T10:37:12.773Z,98189.00
2023-04-21T10:39:45.637Z,98185.00
2023-04-21T10:42:16.468Z,98186.00
2023-04-21T10:44:59.826Z,98188.00
2023-04-21T10:47:52.075Z,98179.00
2023-04-21T10:50:28.176Z,98188.00
2023-04-21T10:53:12.816Z,98191.00
2023-04-21T10:55:50.064Z,98188.00
2023-04-21T10:58:24.332Z,98173.00
2023-04-21T11:00:56.199Z,98173.00
2023-04-21T11:03:35.875Z,98181.00
2023-04-21T11:06:18.532Z,98172.00
2023-04-21T11:08:56.848Z,98168.00
2023-04-21T11:11:27.775Z,98169.00
2023-04-21T11:14:02.621Z,98167.00
2023-04-21T11:16:34.572Z,98150.00
2023-04-21T11:19:05.648Z,98166.00
2023-04-21T11:21:36.627Z,98159.00
2023-04-21T11:24:09.396Z,98156.00
2023-04-21T11:26:42.449Z,98148.00
2023-04-21T11:29:14.442Z,98146.00
2023-04-21T11:31:50.330Z,98151.00
2023-04-21T11:34:22.195Z,98144.00
2023-04-21T11:36:53.759Z,98140.00
2023-04-21T11:39:24.652Z,98150.00
2023-04-21T11:41:55.842Z,98149.00
2023-04-21T11:44:43.480Z,98161.00
2023-04-21T11:47:21.165Z,98146.00
2023-04-21T11:49:56.189Z,98136.00
2023-04-21T11:52:32.880Z,98137.00
2023-04-21T11:55:20.005Z,98129.00
2023-04-21T11:57:54.046Z,98119.00
2023-04-21T12:00:30.843Z,98124.00
2023-04-21T12:03:01.826Z,98122.00
2023-04-21T12:05:37.058Z,98122.00
2023-04-21T12:08:15.616Z,98130.00
2023-04-21T12:10:47.258Z,98135.00
2023-04-21T12:13:25.146Z,98119.00
2023-04-21T12:15:56.204Z,98120.00
2023-04-21T12:18:32.456Z,98117.00
2023-04-21T12:21:03.783Z,98120.00
2023-04-21T12:23:34.641Z,98115.00
2023-04-21T12:26:05.685Z,98120.00
2023-04-21T12:28:37.409Z,98119.00
2023-04-21T12:31:08.409Z,98122.00
2023-04-21T12:33:40.034Z,98100.00
2023-04-21T12:36:11.317Z,98102.00
2023-04-21T12:38:43.203Z,98095.00
2023-04-21T12:41:14.114Z,98092.00
2023-04-21T12:43:45.087Z,98082.00
2023-04-21T12:46:16.373Z,98081.00
2023-04-21T12:48:48.803Z,98070.00
2023-04-21T12:51:19.731Z,98067.00
2023-04-21T12:53:50.678Z,98072.00
2023-04-21T12:56:21.611Z,98064.00
2023-04-21T12:58:52.879Z,98075.00
2023-04-21T13:01:24.398Z,98055.00
2023-04-21T13:03:55.642Z,98058.00
2023-04-21T13:06:28.234Z,98049.00
2023-04-21T13:08:59.488Z,98057.00
2023-04-21T13:11:30.419Z,98059.00
2023-04-21T13:14:04.014Z,98062.00
2023-04-21T13:16:35.035Z,98053.00
2023-04-21T13:19:06.313Z,98058.00
2023-04-21T13:21:37.252Z,98061.00
2023-04-21T13:24:09.045Z,98066.00
2023-04-21T13:26:40.912Z,98057.00
2023-04-21T13:29:11.898Z,98066.00
2023-04-21T13:31:42.873Z,98052.00
2023-04-21T13:34:13.877Z,98038.00
2023-04-21T13:36:45.687Z,98031.00
2023-04-21T13:39:16.714Z,98043.00
2023-04-21T13:41:48.361Z,98034.00
2023-04-21T13:44:21.486Z,98031.00
2023-04-21T13:46:53.987Z,98031.00
2023-04-21T13:49:25.231Z,98041.00
2023-04-21T13:51:56.234Z,98035.00
2023-04-21T13:54:27.828Z,98037.00
2023-04-21T13:56:58.943Z,98033.00
2023-04-21T13:59:30.232Z,98032.00
2023-04-21T14:02:01.702Z,98033.00
2023-04-21T14:04:32.934Z,98029.00
2023-04-21T14:07:05.797Z,98032.00
2023-04-21T14:09:36.716Z,98017.00
2023-04-21T14:12:07.790Z,98013.00
2023-04-21T14:14:39.428Z,98025.00
2023-04-21T14:17:10.525Z,98014.00
2023-04-21T14:19:41.428Z,98004.00
2023-04-21T14:22:12.369Z,98012.00
2023-04-21T14:24:43.384Z,97995.00
2023-04-21T14:27:14.772Z,97997.00
2023-04-21T14:29:45.997Z,97992.00
2023-04-21T14:32:17.322Z,97980.00
2023-04-21T14:34:48.736Z,97974.00
2023-04-21T14:37:21.635Z,97967.00
2023-04-21T14:39:52.606Z,97965.00
2023-04-21T14:42:23.575Z,97959.00
2023-04-21T14:44:54.558Z,97948.00
2023-04-21T14:47:26.031Z,97952.00
2023-04-21T14:49:57.188Z,97960.00
2023-04-21T14:52:28.227Z,97958.00
2023-04-21T14:55:00.382Z,97962.00
2023-04-21T14:57:31.275Z,97956.00
2023-04-21T15:00:02.314Z,97963.00
2023-04-21T15:02:33.393Z,97960.00
2023-04-21T15:05:05.697Z,97954.00
2023-04-21T15:07:36.947Z,97952.00
2023-04-21T15:10:09.064Z,97970.00
2023-04-21T15:12:41.827Z,97944.00
2023-04-21T15:15:12.742Z,97944.00
2023-04-21T15:17:43.720Z,97946.00
2023-04-21T15:20:14.645Z,97946.00
2023-04-21T15:22:45.675Z,97948.00
2023-04-21T15:25:16.695Z,97947.00
2023-04-21T15:27:47.595Z,97944.00
2023-04-21T15:30:18.614Z,97945.00
2023-04-21T15:32:49.600Z,97946.00
2023-04-21T15:35:20.761Z,97972.00
2023-04-21T15:37:51.673Z,97954.00
2023-04-21T15:40:22.681Z,97956.00
2023-04-21T15:42:53.634Z,97952.00
2023-04-21T15:45:24.617Z,97946.00
2023-04-21T15:47:55.598Z,97947.00
2023-04-21T15:50:26.900Z,97948.00
2023-04-21T15:52:57.906Z,97946.00
2023-04-21T15:55:29.307Z,97942.00
2023-04-21T15:58:00.755Z,97937.00
2023-04-21T16:00:31.740Z,97949.00
2023-04-21T16:03:03.212Z,97933.00
2023-04-21T16:05:34.446Z,97950.00
2023-04-21T16:08:05.629Z,97941.00
2023-04-21T16:10:36.749Z,97924.00
2023-04-21T16:13:07.710Z,97932.00
2023-04-21T16:15:38.692Z,97935.00
2023-04-21T16:18:09.955Z,97935.00
2023-04-21T16:20:41.696Z,97940.00
2023-04-21T16:23:14.063Z,97927.00
2023-04-21T16:25:45.149Z,97939.00
2023-04-21T16:28:16.206Z,97935.00
2023-04-21T16:30:48.366Z,97928.00
2023-04-21T16:33:19.296Z,97927.00
2023-04-21T16:35:52.198Z,97925.00
2023-04-21T16:38:24.405Z,97929.00
2023-04-21T16:40:55.444Z,97920.00
2023-04-21T16:43:26.520Z,97919.00
2023-04-21T16:45:57.591Z,97922.00
2023-04-21T16:48:28.554Z,97918.00
2023-04-21T16:50:59.547Z,97911.00
2023-04-21T16:53:30.403Z,97914.00
2023-04-21T16:56:01.415Z,97928.00
2023-04-21T16:58:32.297Z,97924.00
2023-04-21T17:01:04.990Z,97919.00
2023-04-21T17:03:36.972Z,97918.00
2023-04-21T17:06:10.698Z,97927.00
2023-04-21T17:08:41.614Z,97919.00
2023-04-21T17:11:12.593Z,97916.00
2023-04-21T17:13:43.509Z,97924.00
2023-04-21T17:16:14.450Z,97923.00
2023-04-21T17:18:45.337Z,97919.00
2023-04-21T17:21:16.269Z,97930.00
2023-04-21T17:23:47.254Z,97927.00
2023-04-21T17:26:18.196Z,97924.00
2023-04-21T17:28:49.608Z,97927.00
2023-04-21T17:31:20.484Z,97944.00
2023-04-21T17:33:53.367Z,97951.00
2023-04-21T17:36:29.419Z,97952.00
2023-04-21T17:39:00.493Z,97956.00
2023-04-21T17:41:31.375Z,97947.00
2023-04-21T17:44:02.379Z,97940.00
2023-04-21T17:46:33.336Z,97950.00
2023-04-21T17:49:04.265Z,97956.00
2023-04-21T17:51:36.116Z,97953.00
2023-04-21T17:54:08.302Z,97954.00
2023-04-21T17:56:40.818Z,97959.00
2023-04-21T17:59:11.771Z,97969.00
2023-04-21T18:01:42.703Z,97962.00
2023-04-21T18:04:14.513Z,97970.00
2023-04-21T18:06:45.911Z,97962.00
2023-04-21T18:09:17.369Z,97971.00
2023-04-21T18:11:48.374Z,97969.00
2023-04-21T18:14:19.837Z,97968.00
2023-04-21T18:16:50.745Z,97980.00
2023-04-21T18:19:21.953Z,97970.00
2023-04-21T18:21:52.930Z,97980.00
2023-04-21T18:24:23.859Z,97986.00
2023-04-21T18:26:54.754Z,97986.00
2023-04-21T18:29:25.825Z,97988.00
2023-04-21T18:31:56.866Z,97996.00
2023-04-21T18:34:27.775Z,97998.00
2023-04-21T18:36:58.679Z,97997.00
2023-04-21T18:39:29.549Z,97997.00
2023-04-21T18:42:01.008Z,98009.00
2023-04-21T18:44:31.865Z,98022.00
2023-04-21T18:47:02.816Z,98024.00
2023-04-21T18:49:33.895Z,98021.00
2023-04-21T18:52:05.188Z,98024.00
2023-04-21T18:54:36.352Z,98032.00
2023-04-21T18:57:08.373Z,98033.00
2023-04-21T18:59:39.252Z,98039.00
2023-04-21T19:02:12.876Z,98046.00
2023-04-21T19:04:44.040Z,98047.00
2023-04-21T19:07:15.783Z,98051.00
2023-04-21T19:09:46.647Z,98055.00
2023-04-21T19:12:17.658Z,98059.00
2023-04-21T19:14:49.667Z,98056.00
2023-04-21T19:17:20.856Z,98058.00
2023-04-21T19:19:52.225Z,98058.00
2023-04-21T19:22:23.436Z,98053.00
2023-04-21T19:24:56.226Z,98063.00
2023-04-21T19:27:27.609Z,98056.00
2023-04-21T19:29:59.253Z,98063.00
2023-04-21T19:32:30.785Z,98056.00
2023-04-21T19:35:02.689Z,98059.00
2023-04-21T19:37:35.428Z,98061.00
2023-04-21T19:40:08.548Z,98065.00
2023-04-21T19:42:41.674Z,98062.00
2023-04-21T19:45:13.516Z,98069.00
2023-04-21T19:47:44.581Z,98067.00
2023-04-21T19:50:16.453Z,98074.00
2023-04-21T19:52:48.100Z,98083.00
2023-04-21T19:55:19.647Z,98070.00
2023-04-21T19:57:51.258Z,98082.00
2023-04-21T20:00:22.584Z,98073.00
2023-04-21T20:02:53.789Z,98066.00
2023-04-21T20:05:24.874Z,98064.00
2023-04-21T20:07:56.421Z,98066.00
2023-04-21T20:10:27.394Z,98069.00
2023-04-21T20:12:58.501Z,98076.00
2023-04-21T20:15:30.571Z,98067.00
2023-04-21T20:18:01.709Z,98075.00
2023-04-21T20:20:34.666Z,98076.00
2023-04-21T20:23:05.814Z,98079.00
2023-04-21T20:25:37.144Z,98073.00
2023-04-21T20:28:08.090Z,98076.00
2023-04-21T20:30:39.168Z,98077.00
2023-04-21T20:33:10.814Z,98077.00
2023-04-21T20:35:44.215Z,98073.00
2023-04-21T20:38:16.185Z,98079.00
2023-04-21T20:40:50.261Z,98079.00
2023-04-21T20:43:21.398Z,98071.00
2023-04-21T20:45:52.579Z,98075.00
2023-04-21T20:48:23.466Z,98074.00
2023-04-21T20:50:55.129Z,98082.00
2023-04-21T20:53:26.229Z,98086.00
2023-04-21T20:55:57.624Z,98078.00
2023-04-21T20:58:28.562Z,98082.00
2023-04-21T21:00:59.485Z,98079.00
2023-04-21T21:03:30.967Z,98089.00
2023-04-21T21:06:02.056Z,98079.00
2023-04-21T21:08:34.339Z,98076.00
2023-04-21T21:11:06.472Z,98086.00
2023-04-21T21:13:37.406Z,98072.00
2023-04-21T21:16:08.401Z,98079.00
2023-04-21T21:18:39.448Z,98075.00
2023-04-21T21:21:10.504Z,98073.00
2023-04-21T21:23:42.369Z,98080.00
2023-04-21T21:26:13.381Z,98072.00
2023-04-21T21:28:44.318Z,98071.00
2023-04-21T21:31:15.460Z,98077.00
2023-04-21T21:33:46.350Z,98069.00
2023-04-21T21:36:17.400Z,98076.00
2023-04-21T21:38:48.302Z,98074.00
2023-04-21T21:41:19.782Z,98068.00
2023-04-21T21:43:50.871Z,98074.00
2023-04-21T21:46:22.264Z,98076.00
2023-04-21T21:48:54.153Z,98074.00
2023-04-21T21:51:25.106Z,98074.00
2023-04-21T21:53:56.053Z,98075.00
2023-04-21T21:56:27.203Z,98074.00
2023-04-21T21:58:58.559Z,98067.00
2023-04-21T22:01:29.609Z,98063.00
2023-04-21T22:04:00.775Z,98055.00
2023-04-21T22:06:32.704Z,98055.00
2023-04-21T22:09:04.950Z,98059.00
2023-04-21T22:11:37.121Z,98056.00
2023-04-21T22:14:21.994Z,98061.00
2023-04-21T22:16:54.104Z,98067.00
2023-04-21T22:19:25.548Z,98070.00
2023-04-21T22:21:56.537Z,98066.00
2023-04-21T22:24:27.480Z,98072.00
2023-04-21T22:26:58.379Z,98072.00
2023-04-21T22:29:29.281Z,98082.00
2023-04-21T22:32:00.961Z,98096.00
2023-04-21T22:34:31.896Z,98076.00
2023-04-21T22:37:02.873Z,98076.00
2023-04-21T22:39:33.799Z,98081.00
2023-04-21T22:42:06.763Z,98078.00
2023-04-21T22:44:37.729Z,98082.00
2023-04-21T22:47:10.772Z,98077.00
2023-04-21T22:49:41.945Z,98094.00
2023-04-21T22:52:12.880Z,98077.00
2023-04-21T22:54:43.765Z,98075.00
2023-04-21T22:57:14.902Z,98077.00
2023-04-21T22:59:45.833Z,98071.00
2023-04-21T23:02:16.861Z,98078.00
2023-04-21T23:04:47.849Z,98080.00
2023-04-21T23:07:18.921Z,98082.00
2023-04-21T23:09:50.086Z,98080.00
2023-04-21T23:12:21.046Z,98077.00
2023-04-21T23:14:51.944Z,98079.00
2023-04-21T23:17:23.294Z,98095.00
2023-04-21T23:19:55.316Z,98066.00
2023-04-21T23:22:26.420Z,98062.00
2023-04-21T23:24:57.456Z,98065.00
2023-04-21T23:27:28.362Z,98062.00
2023-04-21T23:29:59.419Z,98063.00
2023-04-21T23:32:30.451Z,98073.00
2023-04-21T23:35:01.355Z,98071.00
2023-04-21T23:37:32.280Z,98075.00
2023-04-21T23:40:06.118Z,98068.00
2023-04-21T23:42:40.147Z,98060.00
2023-04-21T23:45:11.326Z,98056.00
2023-04-21T23:47:42.286Z,98065.00
2023-04-21T23:50:13.771Z,98058.00
2023-04-21T23:52:44.877Z,98059.00
2023-04-21T23:55:16.323Z,98054.00
2023-04-21T23:57:47.370Z,98050.00
